sensor_id;sensor_type;location;lat;lon;timestamp;P1;durP1;ratioP1;P2;durP2;ratioP2
5195;SDS011;2617;51.006;12.436;2023-04-06T00:03:12;4.50;;;3.87;;
5195;SDS011;2617;51.006;12.436;2023-04-06T00:08:14;4.27;;;3.77;;
5195;SDS011;2617;51.006;12.436;2023-04-06T00:13:17;3.80;;;3.37;;
5195;SDS011;2617;51.006;12.436;2023-04-06T00:18:19;4.20;;;3.53;;
5195;SDS011;2617;51.006;12.436;2023-04-06T00:23:22;3.70;;;2.70;;
5195;SDS011;2617;51.006;12.436;2023-04-06T00:28:25;4.57;;;3.40;;
5195;SDS011;2617;51.006;12.436;2023-04-06T00:33:28;5.07;;;3.33;;
5195;SDS011;2617;51.006;12.436;2023-04-06T00:38:31;9.65;;;3.87;;
5195;SDS011;2617;51.006;12.436;2023-04-06T00:43:34;4.67;;;3.33;;
5195;SDS011;2617;51.006;12.436;2023-04-06T00:48:36;3.78;;;3.48;;
5195;SDS011;2617;51.006;12.436;2023-04-06T00:53:39;5.10;;;3.80;;
5195;SDS011;2617;51.006;12.436;2023-04-06T00:58:41;4.53;;;3.90;;
5195;SDS011;2617;51.006;12.436;2023-04-06T01:03:43;3.80;;;3.50;;
5195;SDS011;2617;51.006;12.436;2023-04-06T01:08:46;4.23;;;3.93;;
5195;SDS011;2617;51.006;12.436;2023-04-06T01:13:48;5.13;;;3.80;;
5195;SDS011;2617;51.006;12.436;2023-04-06T01:18:53;4.97;;;3.70;;
5195;SDS011;2617;51.006;12.436;2023-04-06T01:23:56;4.20;;;3.63;;
5195;SDS011;2617;51.006;12.436;2023-04-06T01:28:59;7.40;;;4.10;;
5195;SDS011;2617;51.006;12.436;2023-04-06T01:34:03;3.80;;;3.50;;
5195;SDS011;2617;51.006;12.436;2023-04-06T01:39:05;4.33;;;3.93;;
5195;SDS011;2617;51.006;12.436;2023-04-06T01:44:08;6.37;;;4.50;;
5195;SDS011;2617;51.006;12.436;2023-04-06T01:49:10;4.45;;;4.05;;
5195;SDS011;2617;51.006;12.436;2023-04-06T01:54:13;6.00;;;4.00;;
5195;SDS011;2617;51.006;12.436;2023-04-06T01:59:15;4.73;;;3.90;;
5195;SDS011;2617;51.006;12.436;2023-04-06T02:04:18;4.25;;;3.40;;
5195;SDS011;2617;51.006;12.436;2023-04-06T02:09:21;4.63;;;3.63;;
5195;SDS011;2617;51.006;12.436;2023-04-06T02:14:24;3.97;;;3.57;;
5195;SDS011;2617;51.006;12.436;2023-04-06T02:19:27;5.43;;;3.73;;
5195;SDS011;2617;51.006;12.436;2023-04-06T02:24:30;5.95;;;4.30;;
5195;SDS011;2617;51.006;12.436;2023-04-06T02:29:33;5.13;;;4.10;;
5195;SDS011;2617;51.006;12.436;2023-04-06T02:34:36;4.70;;;4.20;;
5195;SDS011;2617;51.006;12.436;2023-04-06T02:39:38;7.33;;;4.10;;
5195;SDS011;2617;51.006;12.436;2023-04-06T02:44:42;4.20;;;3.47;;
5195;SDS011;2617;51.006;12.436;2023-04-06T02:49:44;4.83;;;4.10;;
5195;SDS011;2617;51.006;12.436;2023-04-06T02:54:46;4.23;;;3.83;;
5195;SDS011;2617;51.006;12.436;2023-04-06T02:59:49;4.07;;;3.63;;
5195;SDS011;2617;51.006;12.436;2023-04-06T03:04:52;6.80;;;3.87;;
5195;SDS011;2617;51.006;12.436;2023-04-06T03:09:55;3.97;;;3.60;;
5195;SDS011;2617;51.006;12.436;2023-04-06T03:14:57;5.83;;;3.27;;
5195;SDS011;2617;51.006;12.436;2023-04-06T03:19:59;9.23;;;3.10;;
5195;SDS011;2617;51.006;12.436;2023-04-06T03:25:03;3.85;;;3.47;;
5195;SDS011;2617;51.006;12.436;2023-04-06T03:30:06;4.63;;;4.00;;
5195;SDS011;2617;51.006;12.436;2023-04-06T03:35:09;10.43;;;4.50;;
5195;SDS011;2617;51.006;12.436;2023-04-06T03:40:12;8.40;;;4.27;;
5195;SDS011;2617;51.006;12.436;2023-04-06T03:45:15;4.00;;;3.70;;
5195;SDS011;2617;51.006;12.436;2023-04-06T03:50:17;9.37;;;5.03;;
5195;SDS011;2617;51.006;12.436;2023-04-06T03:55:20;4.82;;;4.25;;
5195;SDS011;2617;51.006;12.436;2023-04-06T04:00:22;3.77;;;3.40;;
5195;SDS011;2617;51.006;12.436;2023-04-06T04:05:25;5.93;;;3.80;;
5195;SDS011;2617;51.006;12.436;2023-04-06T04:10:27;4.20;;;3.80;;
5195;SDS011;2617;51.006;12.436;2023-04-06T04:15:30;5.33;;;4.27;;
5195;SDS011;2617;51.006;12.436;2023-04-06T04:20:32;9.53;;;4.90;;
5195;SDS011;2617;51.006;12.436;2023-04-06T04:25:35;4.23;;;3.80;;
5195;SDS011;2617;51.006;12.436;2023-04-06T04:30:37;4.77;;;4.30;;
5195;SDS011;2617;51.006;12.436;2023-04-06T04:35:41;4.20;;;3.80;;
5195;SDS011;2617;51.006;12.436;2023-04-06T04:40:43;4.73;;;3.60;;
5195;SDS011;2617;51.006;12.436;2023-04-06T04:45:45;7.80;;;4.90;;
5195;SDS011;2617;51.006;12.436;2023-04-06T04:50:49;5.00;;;4.50;;
5195;SDS011;2617;51.006;12.436;2023-04-06T04:55:51;10.77;;;5.57;;
5195;SDS011;2617;51.006;12.436;2023-04-06T05:00:53;7.80;;;5.20;;
5195;SDS011;2617;51.006;12.436;2023-04-06T05:05:56;7.68;;;5.22;;
5195;SDS011;2617;51.006;12.436;2023-04-06T05:10:58;6.77;;;4.80;;
5195;SDS011;2617;51.006;12.436;2023-04-06T05:16:02;12.57;;;5.23;;
5195;SDS011;2617;51.006;12.436;2023-04-06T05:21:04;4.25;;;3.67;;
5195;SDS011;2617;51.006;12.436;2023-04-06T05:26:08;7.73;;;5.13;;
5195;SDS011;2617;51.006;12.436;2023-04-06T05:31:11;5.13;;;3.57;;
5195;SDS011;2617;51.006;12.436;2023-04-06T05:36:14;4.97;;;4.43;;
5195;SDS011;2617;51.006;12.436;2023-04-06T05:41:17;6.30;;;5.10;;
5195;SDS011;2617;51.006;12.436;2023-04-06T05:46:20;7.33;;;5.20;;
5195;SDS011;2617;51.006;12.436;2023-04-06T05:51:22;6.07;;;4.10;;
5195;SDS011;2617;51.006;12.436;2023-04-06T05:56:25;11.40;;;4.70;;
5195;SDS011;2617;51.006;12.436;2023-04-06T06:01:27;6.27;;;4.07;;
5195;SDS011;2617;51.006;12.436;2023-04-06T06:06:30;4.33;;;3.97;;
5195;SDS011;2617;51.006;12.436;2023-04-06T06:11:33;6.70;;;5.03;;
5195;SDS011;2617;51.006;12.436;2023-04-06T06:16:35;4.53;;;4.13;;
5195;SDS011;2617;51.006;12.436;2023-04-06T06:21:38;5.13;;;4.63;;
5195;SDS011;2617;51.006;12.436;2023-04-06T06:26:41;3.80;;;3.50;;
5195;SDS011;2617;51.006;12.436;2023-04-06T06:31:44;9.13;;;3.70;;
5195;SDS011;2617;51.006;12.436;2023-04-06T06:36:47;4.53;;;4.12;;
5195;SDS011;2617;51.006;12.436;2023-04-06T06:41:49;9.10;;;4.40;;
5195;SDS011;2617;51.006;12.436;2023-04-06T06:46:52;5.40;;;3.97;;
5195;SDS011;2617;51.006;12.436;2023-04-06T06:51:55;3.80;;;3.50;;
5195;SDS011;2617;51.006;12.436;2023-04-06T06:56:57;7.32;;;4.45;;
5195;SDS011;2617;51.006;12.436;2023-04-06T07:02:01;9.13;;;4.60;;
5195;SDS011;2617;51.006;12.436;2023-04-06T07:07:03;5.97;;;3.97;;
5195;SDS011;2617;51.006;12.436;2023-04-06T07:12:06;5.25;;;4.28;;
5195;SDS011;2617;51.006;12.436;2023-04-06T07:17:08;4.80;;;3.97;;
5195;SDS011;2617;51.006;12.436;2023-04-06T07:22:11;4.93;;;4.03;;
5195;SDS011;2617;51.006;12.436;2023-04-06T07:27:13;8.23;;;5.33;;
5195;SDS011;2617;51.006;12.436;2023-04-06T07:32:16;7.53;;;4.20;;
5195;SDS011;2617;51.006;12.436;2023-04-06T07:37:18;6.83;;;4.40;;
5195;SDS011;2617;51.006;12.436;2023-04-06T07:42:21;10.77;;;4.65;;
5195;SDS011;2617;51.006;12.436;2023-04-06T07:47:23;5.97;;;3.87;;
5195;SDS011;2617;51.006;12.436;2023-04-06T07:52:25;4.80;;;3.67;;
5195;SDS011;2617;51.006;12.436;2023-04-06T07:57:28;5.90;;;4.23;;
5195;SDS011;2617;51.006;12.436;2023-04-06T08:02:31;5.10;;;4.00;;
5195;SDS011;2617;51.006;12.436;2023-04-06T08:07:34;5.67;;;4.37;;
5195;SDS011;2617;51.006;12.436;2023-04-06T08:12:36;7.65;;;4.00;;
5195;SDS011;2617;51.006;12.436;2023-04-06T08:17:39;5.80;;;3.67;;
5195;SDS011;2617;51.006;12.436;2023-04-06T08:22:41;4.23;;;3.80;;
5195;SDS011;2617;51.006;12.436;2023-04-06T08:27:44;3.93;;;3.50;;
5195;SDS011;2617;51.006;12.436;2023-04-06T08:32:46;3.80;;;3.45;;
5195;SDS011;2617;51.006;12.436;2023-04-06T08:37:49;5.20;;;3.50;;
5195;SDS011;2617;51.006;12.436;2023-04-06T08:42:54;3.40;;;3.00;;
5195;SDS011;2617;51.006;12.436;2023-04-06T08:47:55;4.07;;;2.77;;
5195;SDS011;2617;51.006;12.436;2023-04-06T08:52:59;6.60;;;3.10;;
5195;SDS011;2617;51.006;12.436;2023-04-06T08:58:01;7.63;;;3.10;;
5195;SDS011;2617;51.006;12.436;2023-04-06T09:03:04;3.40;;;2.60;;
5195;SDS011;2617;51.006;12.436;2023-04-06T09:08:08;3.93;;;3.00;;
5195;SDS011;2617;51.006;12.436;2023-04-06T09:13:10;2.70;;;2.50;;
5195;SDS011;2617;51.006;12.436;2023-04-06T09:18:13;3.20;;;2.90;;
5195;SDS011;2617;51.006;12.436;2023-04-06T09:23:17;4.27;;;3.50;;
5195;SDS011;2617;51.006;12.436;2023-04-06T09:28:20;4.50;;;3.07;;
5195;SDS011;2617;51.006;12.436;2023-04-06T09:33:23;3.10;;;2.80;;
5195;SDS011;2617;51.006;12.436;2023-04-06T09:38:25;6.93;;;3.23;;
5195;SDS011;2617;51.006;12.436;2023-04-06T09:43:28;3.80;;;2.80;;
5195;SDS011;2617;51.006;12.436;2023-04-06T09:48:31;3.27;;;2.97;;
5195;SDS011;2617;51.006;12.436;2023-04-06T09:53:34;3.80;;;3.40;;
5195;SDS011;2617;51.006;12.436;2023-04-06T09:58:38;5.24;;;2.84;;
5195;SDS011;2617;51.006;12.436;2023-04-06T10:03:49;13.30;;;4.37;;
5195;SDS011;2617;51.006;12.436;2023-04-06T10:08:47;6.70;;;3.50;;
5195;SDS011;2617;51.006;12.436;2023-04-06T10:13:50;7.10;;;2.63;;
5195;SDS011;2617;51.006;12.436;2023-04-06T10:18:54;3.40;;;3.13;;
5195;SDS011;2617;51.006;12.436;2023-04-06T10:23:59;2.53;;;2.33;;
5195;SDS011;2617;51.006;12.436;2023-04-06T10:29:02;4.10;;;3.22;;
5195;SDS011;2617;51.006;12.436;2023-04-06T10:34:04;3.27;;;3.07;;
5195;SDS011;2617;51.006;12.436;2023-04-06T10:39:09;2.82;;;2.62;;
5195;SDS011;2617;51.006;12.436;2023-04-06T10:44:19;7.20;;;3.00;;
5195;SDS011;2617;51.006;12.436;2023-04-06T10:49:24;5.32;;;3.70;;
5195;SDS011;2617;51.006;12.436;2023-04-06T10:54:25;3.77;;;3.00;;
5195;SDS011;2617;51.006;12.436;2023-04-06T10:59:29;3.77;;;3.30;;
5195;SDS011;2617;51.006;12.436;2023-04-06T11:04:32;6.43;;;3.10;;
5195;SDS011;2617;51.006;12.436;2023-04-06T11:09:34;4.13;;;2.80;;
5195;SDS011;2617;51.006;12.436;2023-04-06T11:14:37;3.60;;;3.30;;
5195;SDS011;2617;51.006;12.436;2023-04-06T11:19:39;3.50;;;3.20;;
5195;SDS011;2617;51.006;12.436;2023-04-06T11:24:42;3.50;;;2.80;;
5195;SDS011;2617;51.006;12.436;2023-04-06T11:29:44;3.93;;;3.53;;
5195;SDS011;2617;51.006;12.436;2023-04-06T11:34:48;3.75;;;2.85;;
5195;SDS011;2617;51.006;12.436;2023-04-06T11:39:52;3.27;;;2.97;;
5195;SDS011;2617;51.006;12.436;2023-04-06T11:44:55;5.87;;;3.40;;
5195;SDS011;2617;51.006;12.436;2023-04-06T11:55:10;3.63;;;3.33;;
5195;SDS011;2617;51.006;12.436;2023-04-06T12:00:15;5.68;;;3.00;;
5195;SDS011;2617;51.006;12.436;2023-04-06T12:05:19;4.20;;;3.50;;
5195;SDS011;2617;51.006;12.436;2023-04-06T12:10:22;6.13;;;4.00;;
5195;SDS011;2617;51.006;12.436;2023-04-06T12:15:24;3.90;;;2.97;;
5195;SDS011;2617;51.006;12.436;2023-04-06T12:20:28;4.30;;;3.53;;
5195;SDS011;2617;51.006;12.436;2023-04-06T12:25:30;5.23;;;3.73;;
5195;SDS011;2617;51.006;12.436;2023-04-06T12:30:34;3.43;;;3.13;;
5195;SDS011;2617;51.006;12.436;2023-04-06T12:35:36;4.50;;;3.67;;
5195;SDS011;2617;51.006;12.436;2023-04-06T12:40:39;5.32;;;3.95;;
5195;SDS011;2617;51.006;12.436;2023-04-06T12:45:42;3.43;;;3.13;;
5195;SDS011;2617;51.006;12.436;2023-04-06T12:50:44;5.33;;;3.77;;
5195;SDS011;2617;51.006;12.436;2023-04-06T12:55:47;5.73;;;3.60;;
5195;SDS011;2617;51.006;12.436;2023-04-06T13:00:50;6.00;;;3.47;;
5195;SDS011;2617;51.006;12.436;2023-04-06T13:05:52;3.83;;;3.53;;
5195;SDS011;2617;51.006;12.436;2023-04-06T13:10:55;3.50;;;3.20;;
5195;SDS011;2617;51.006;12.436;2023-04-06T13:16:00;3.47;;;2.90;;
5195;SDS011;2617;51.006;12.436;2023-04-06T13:21:02;3.50;;;3.30;;
5195;SDS011;2617;51.006;12.436;2023-04-06T13:26:05;8.43;;;4.17;;
5195;SDS011;2617;51.006;12.436;2023-04-06T13:31:07;3.10;;;2.90;;
5195;SDS011;2617;51.006;12.436;2023-04-06T13:36:10;4.05;;;3.67;;
5195;SDS011;2617;51.006;12.436;2023-04-06T13:41:18;3.73;;;3.40;;
5195;SDS011;2617;51.006;12.436;2023-04-06T13:46:23;3.83;;;3.50;;
5195;SDS011;2617;51.006;12.436;2023-04-06T13:51:25;6.67;;;4.13;;
5195;SDS011;2617;51.006;12.436;2023-04-06T13:56:27;4.13;;;3.60;;
5195;SDS011;2617;51.006;12.436;2023-04-06T14:01:30;4.23;;;3.60;;
5195;SDS011;2617;51.006;12.436;2023-04-06T14:06:33;4.87;;;3.87;;
5195;SDS011;2617;51.006;12.436;2023-04-06T14:11:36;4.70;;;3.40;;
5195;SDS011;2617;51.006;12.436;2023-04-06T14:16:38;3.50;;;3.20;;
5195;SDS011;2617;51.006;12.436;2023-04-06T14:21:41;3.60;;;3.30;;
5195;SDS011;2617;51.006;12.436;2023-04-06T14:26:43;3.73;;;3.20;;
5195;SDS011;2617;51.006;12.436;2023-04-06T14:31:47;3.30;;;3.00;;
5195;SDS011;2617;51.006;12.436;2023-04-06T14:36:49;5.07;;;3.80;;
5195;SDS011;2617;51.006;12.436;2023-04-06T14:41:51;6.97;;;3.77;;
5195;SDS011;2617;51.006;12.436;2023-04-06T14:46:54;3.40;;;3.10;;
5195;SDS011;2617;51.006;12.436;2023-04-06T14:51:56;6.57;;;4.00;;
5195;SDS011;2617;51.006;12.436;2023-04-06T14:56:59;4.03;;;3.70;;
5195;SDS011;2617;51.006;12.436;2023-04-06T15:02:01;4.43;;;3.30;;
5195;SDS011;2617;51.006;12.436;2023-04-06T15:07:04;3.40;;;3.10;;
5195;SDS011;2617;51.006;12.436;2023-04-06T15:12:07;6.93;;;3.63;;
5195;SDS011;2617;51.006;12.436;2023-04-06T15:17:10;4.10;;;3.72;;
5195;SDS011;2617;51.006;12.436;2023-04-06T15:22:13;5.23;;;3.60;;
5195;SDS011;2617;51.006;12.436;2023-04-06T15:27:15;5.00;;;4.13;;
5195;SDS011;2617;51.006;12.436;2023-04-06T15:32:17;4.20;;;3.33;;
5195;SDS011;2617;51.006;12.436;2023-04-06T15:37:21;5.53;;;3.85;;
5195;SDS011;2617;51.006;12.436;2023-04-06T15:42:23;5.27;;;3.50;;
5195;SDS011;2617;51.006;12.436;2023-04-06T15:47:25;3.53;;;3.23;;
5195;SDS011;2617;51.006;12.436;2023-04-06T15:52:28;4.00;;;3.63;;
5195;SDS011;2617;51.006;12.436;2023-04-06T15:57:30;4.53;;;3.77;;
5195;SDS011;2617;51.006;12.436;2023-04-06T16:02:33;4.40;;;3.75;;
5195;SDS011;2617;51.006;12.436;2023-04-06T16:07:35;3.90;;;3.60;;
5195;SDS011;2617;51.006;12.436;2023-04-06T16:12:37;4.07;;;3.67;;
5195;SDS011;2617;51.006;12.436;2023-04-06T16:17:40;4.37;;;3.85;;
5195;SDS011;2617;51.006;12.436;2023-04-06T16:22:42;8.37;;;3.20;;
5195;SDS011;2617;51.006;12.436;2023-04-06T16:27:45;4.00;;;3.57;;
5195;SDS011;2617;51.006;12.436;2023-04-06T16:32:47;3.70;;;3.40;;
5195;SDS011;2617;51.006;12.436;2023-04-06T16:37:50;5.07;;;4.40;;
5195;SDS011;2617;51.006;12.436;2023-04-06T16:42:52;3.93;;;3.60;;
5195;SDS011;2617;51.006;12.436;2023-04-06T16:47:55;3.40;;;3.10;;
5195;SDS011;2617;51.006;12.436;2023-04-06T16:52:57;6.57;;;3.90;;
5195;SDS011;2617;51.006;12.436;2023-04-06T16:58:00;7.60;;;5.10;;
5195;SDS011;2617;51.006;12.436;2023-04-06T17:03:02;8.93;;;6.00;;
5195;SDS011;2617;51.006;12.436;2023-04-06T17:08:05;3.97;;;3.57;;
5195;SDS011;2617;51.006;12.436;2023-04-06T17:13:07;4.30;;;3.60;;
5195;SDS011;2617;51.006;12.436;2023-04-06T17:18:10;4.07;;;3.67;;
5195;SDS011;2617;51.006;12.436;2023-04-06T17:23:13;6.90;;;5.85;;
5195;SDS011;2617;51.006;12.436;2023-04-06T17:28:16;7.70;;;5.33;;
5195;SDS011;2617;51.006;12.436;2023-04-06T17:33:18;6.20;;;4.70;;
5195;SDS011;2617;51.006;12.436;2023-04-06T17:38:21;7.50;;;5.10;;
5195;SDS011;2617;51.006;12.436;2023-04-06T17:43:23;8.63;;;5.70;;
5195;SDS011;2617;51.006;12.436;2023-04-06T17:48:25;8.00;;;5.23;;
5195;SDS011;2617;51.006;12.436;2023-04-06T17:53:28;5.43;;;4.30;;
5195;SDS011;2617;51.006;12.436;2023-04-06T17:58:30;7.47;;;4.70;;
5195;SDS011;2617;51.006;12.436;2023-04-06T18:03:33;5.43;;;4.10;;
5195;SDS011;2617;51.006;12.436;2023-04-06T18:08:35;4.40;;;4.10;;
5195;SDS011;2617;51.006;12.436;2023-04-06T18:13:38;8.10;;;5.13;;
5195;SDS011;2617;51.006;12.436;2023-04-06T18:18:40;7.30;;;5.33;;
5195;SDS011;2617;51.006;12.436;2023-04-06T18:23:44;7.60;;;6.58;;
5195;SDS011;2617;51.006;12.436;2023-04-06T18:28:46;6.80;;;5.47;;
5195;SDS011;2617;51.006;12.436;2023-04-06T18:33:49;9.60;;;7.47;;
5195;SDS011;2617;51.006;12.436;2023-04-06T18:38:51;15.33;;;9.63;;
5195;SDS011;2617;51.006;12.436;2023-04-06T18:43:53;14.70;;;9.80;;
5195;SDS011;2617;51.006;12.436;2023-04-06T18:48:57;13.67;;;10.13;;
5195;SDS011;2617;51.006;12.436;2023-04-06T18:53:59;15.90;;;11.30;;
5195;SDS011;2617;51.006;12.436;2023-04-06T18:59:02;15.17;;;10.43;;
5195;SDS011;2617;51.006;12.436;2023-04-06T19:04:05;13.30;;;9.57;;
5195;SDS011;2617;51.006;12.436;2023-04-06T19:09:07;11.90;;;8.95;;
5195;SDS011;2617;51.006;12.436;2023-04-06T19:14:10;11.13;;;7.93;;
5195;SDS011;2617;51.006;12.436;2023-04-06T19:19:12;11.30;;;7.73;;
5195;SDS011;2617;51.006;12.436;2023-04-06T19:24:15;11.37;;;7.33;;
5195;SDS011;2617;51.006;12.436;2023-04-06T19:29:17;7.80;;;6.43;;
5195;SDS011;2617;51.006;12.436;2023-04-06T19:34:20;9.16;;;6.96;;
5195;SDS011;2617;51.006;12.436;2023-04-06T19:39:23;8.80;;;6.30;;
5195;SDS011;2617;51.006;12.436;2023-04-06T19:44:25;9.57;;;7.10;;
5195;SDS011;2617;51.006;12.436;2023-04-06T19:49:27;8.67;;;6.80;;
5195;SDS011;2617;51.006;12.436;2023-04-06T19:54:30;8.60;;;7.63;;
5195;SDS011;2617;51.006;12.436;2023-04-06T19:59:32;9.13;;;6.97;;
5195;SDS011;2617;51.006;12.436;2023-04-06T20:04:35;14.30;;;8.37;;
5195;SDS011;2617;51.006;12.436;2023-04-06T20:09:37;9.23;;;7.40;;
5195;SDS011;2617;51.006;12.436;2023-04-06T20:14:40;9.20;;;7.40;;
5195;SDS011;2617;51.006;12.436;2023-04-06T20:19:42;14.73;;;7.83;;
5195;SDS011;2617;51.006;12.436;2023-04-06T20:24:45;9.70;;;6.53;;
5195;SDS011;2617;51.006;12.436;2023-04-06T20:29:48;6.47;;;5.87;;
5195;SDS011;2617;51.006;12.436;2023-04-06T20:34:50;8.63;;;6.12;;
5195;SDS011;2617;51.006;12.436;2023-04-06T20:39:53;9.67;;;6.27;;
5195;SDS011;2617;51.006;12.436;2023-04-06T20:44:55;8.30;;;5.93;;
5195;SDS011;2617;51.006;12.436;2023-04-06T20:49:58;9.40;;;5.90;;
5195;SDS011;2617;51.006;12.436;2023-04-06T20:55:01;7.30;;;5.67;;
5195;SDS011;2617;51.006;12.436;2023-04-06T21:00:04;8.50;;;6.13;;
5195;SDS011;2617;51.006;12.436;2023-04-06T21:05:07;8.50;;;6.13;;
5195;SDS011;2617;51.006;12.436;2023-04-06T21:10:11;8.30;;;6.70;;
5195;SDS011;2617;51.006;12.436;2023-04-06T21:15:13;6.67;;;5.90;;
5195;SDS011;2617;51.006;12.436;2023-04-06T21:20:16;7.82;;;6.85;;
5195;SDS011;2617;51.006;12.436;2023-04-06T21:25:19;11.10;;;7.30;;
5195;SDS011;2617;51.006;12.436;2023-04-06T21:30:21;11.63;;;7.60;;
5195;SDS011;2617;51.006;12.436;2023-04-06T21:35:23;9.20;;;7.00;;
5195;SDS011;2617;51.006;12.436;2023-04-06T21:40:26;9.00;;;6.87;;
5195;SDS011;2617;51.006;12.436;2023-04-06T21:45:28;7.70;;;6.30;;
5195;SDS011;2617;51.006;12.436;2023-04-06T21:50:31;11.77;;;7.27;;
5195;SDS011;2617;51.006;12.436;2023-04-06T21:55:33;8.07;;;7.10;;
5195;SDS011;2617;51.006;12.436;2023-04-06T22:00:35;8.35;;;6.32;;
5195;SDS011;2617;51.006;12.436;2023-04-06T22:05:39;8.30;;;6.70;;
5195;SDS011;2617;51.006;12.436;2023-04-06T22:10:41;9.90;;;7.40;;
5195;SDS011;2617;51.006;12.436;2023-04-06T22:15:43;7.90;;;6.30;;
5195;SDS011;2617;51.006;12.436;2023-04-06T22:20:46;8.10;;;7.20;;
5195;SDS011;2617;51.006;12.436;2023-04-06T22:25:48;7.07;;;6.37;;
5195;SDS011;2617;51.006;12.436;2023-04-06T22:30:51;13.00;;;7.87;;
5195;SDS011;2617;51.006;12.436;2023-04-06T22:35:54;13.63;;;7.50;;
5195;SDS011;2617;51.006;12.436;2023-04-06T22:40:56;13.63;;;8.13;;
5195;SDS011;2617;51.006;12.436;2023-04-06T22:45:59;10.50;;;6.00;;
5195;SDS011;2617;51.006;12.436;2023-04-06T22:51:01;11.60;;;6.63;;
5195;SDS011;2617;51.006;12.436;2023-04-06T22:56:04;9.40;;;7.13;;
5195;SDS011;2617;51.006;12.436;2023-04-06T23:01:06;9.10;;;6.53;;
5195;SDS011;2617;51.006;12.436;2023-04-06T23:06:10;8.23;;;6.20;;
5195;SDS011;2617;51.006;12.436;2023-04-06T23:11:12;7.80;;;6.20;;
5195;SDS011;2617;51.006;12.436;2023-04-06T23:16:14;9.37;;;6.13;;
5195;SDS011;2617;51.006;12.436;2023-04-06T23:21:17;7.93;;;6.15;;
5195;SDS011;2617;51.006;12.436;2023-04-06T23:26:19;6.40;;;5.57;;
5195;SDS011;2617;51.006;12.436;2023-04-06T23:31:22;8.67;;;6.17;;
5195;SDS011;2617;51.006;12.436;2023-04-06T23:36:24;8.00;;;5.72;;
5195;SDS011;2617;51.006;12.436;2023-04-06T23:41:27;7.23;;;5.73;;
5195;SDS011;2617;51.006;12.436;2023-04-06T23:46:30;12.57;;;6.13;;
5195;SDS011;2617;51.006;12.436;2023-04-06T23:51:33;8.83;;;5.90;;
5195;SDS011;2617;51.006;12.436;2023-04-06T23:56:35;8.18;;;6.05;;
